Time;durP1;ratioP1;P1;durP2;ratioP2;P2;SDS_P1;SDS_P2;PMS_P1;PMS_P2;Temp;Humidity;BMP_temperature;BMP_pressure;BME280_temperature;BME280_humidity;BME280_pressure;Samples;Min_cycle;Max_cycle;Signal;HPM_P1;HPM_P2
2022/07/09 00:01:09;;;;;;;;;;;;;;;16.44;100.00;101064.31;10502753;28;19925;-64
2022/07/09 00:06:12;;;;;;;;;;;;;;;16.45;100.00;101063.41;10503128;28;19960;-69
2022/07/09 00:11:17;;;;;;;;;;;;;;;16.46;100.00;101057.28;10502828;28;19924;-72
2022/07/09 00:16:20;;;;;;;;;;;;;;;16.40;100.00;101063.50;10502525;28;19924;-68
2022/07/09 00:21:23;;;;;;;;;;;;;;;16.39;100.00;101059.19;10501945;28;19935;-65
2022/07/09 00:26:27;;;;;;;;;;;;;;;16.37;100.00;101053.09;10501950;28;19934;-68
2022/07/09 00:31:30;;;;;;;;;;;;;;;16.40;100.00;101057.41;10501895;28;19924;-69
2022/07/09 00:36:33;;;;;;;;;;;;;;;16.43;100.00;101057.34;10501874;28;19932;-71
2022/07/09 00:41:37;;;;;;;;;;;;;;;16.48;100.00;101066.00;10501628;28;20353;-66
2022/07/09 00:46:40;;;;;;;;;;;;;;;16.51;100.00;101052.81;10501370;28;19925;-68
2022/07/09 00:51:43;;;;;;;;;;;;;;;16.60;100.00;101057.84;10501387;28;19925;-66
2022/07/09 00:56:48;;;;;;;;;;;;;;;16.65;100.00;101050.75;10501443;28;19924;-68
2022/07/09 01:01:51;;;;;;;;;;;;;;;16.66;100.00;101045.47;10501086;28;20348;-65
2022/07/09 01:06:54;;;;;;;;;;;;;;;16.72;100.00;101033.97;10501222;28;20356;-66
2022/07/09 01:11:58;;;;;;;;;;;;;;;16.77;100.00;101032.09;10501313;28;19925;-69
2022/07/09 01:17:02;;;;;;;;;;;;;;;16.80;100.00;101017.16;10500894;28;19924;-67
2022/07/09 01:22:06;;;;;;;;;;;;;;;16.84;100.00;101017.94;10507432;28;19924;-65
2022/07/09 01:27:10;;;;;;;;;;;;;;;16.88;100.00;101019.56;10509239;28;19939;-67
2022/07/09 01:32:13;;;;;;;;;;;;;;;16.89;100.00;101032.66;10508739;28;19928;-69
2022/07/09 01:37:18;;;;;;;;;;;;;;;16.90;100.00;101029.13;10508797;28;20365;-68
2022/07/09 01:42:21;;;;;;;;;;;;;;;17.00;100.00;101021.88;10508556;28;19924;-68
2022/07/09 01:47:24;;;;;;;;;;;;;;;17.01;100.00;101006.13;10508473;28;19986;-67
2022/07/09 01:52:29;;;;;;;;;;;;;;;17.01;100.00;101027.09;10508575;28;19924;-66
2022/07/09 01:57:32;;;;;;;;;;;;;;;17.01;100.00;101016.63;10507900;28;19930;-67
2022/07/09 02:02:35;;;;;;;;;;;;;;;17.09;100.00;101012.03;10507550;28;20367;-67
2022/07/09 02:07:39;;;;;;;;;;;;;;;17.09;100.00;101001.53;10507583;28;19924;-65
2022/07/09 02:12:42;;;;;;;;;;;;;;;17.09;100.00;101003.28;10507729;28;20265;-66
2022/07/09 02:17:45;;;;;;;;;;;;;;;17.03;100.00;101011.31;10507174;28;19931;-69
2022/07/09 02:22:50;;;;;;;;;;;;;;;16.85;100.00;100993.44;10506570;28;19935;-66
2022/07/09 02:27:53;;;;;;;;;;;;;;;16.95;100.00;101000.16;10507460;28;19925;-69
2022/07/09 02:32:56;;;;;;;;;;;;;;;16.94;100.00;100998.44;10506372;28;19935;-65
2022/07/09 02:38:00;;;;;;;;;;;;;;;16.94;100.00;101001.06;10506488;28;19934;-70
2022/07/09 02:43:03;;;;;;;;;;;;;;;16.90;100.00;100995.03;10506042;28;19950;-67
2022/07/09 02:48:06;;;;;;;;;;;;;;;16.91;100.00;101001.16;10505983;28;19924;-70
2022/07/09 02:53:10;;;;;;;;;;;;;;;16.85;100.00;100990.81;10506081;28;19925;-67
2022/07/09 02:58:14;;;;;;;;;;;;;;;16.79;100.00;100998.84;10505773;28;19951;-68
2022/07/09 03:03:17;;;;;;;;;;;;;;;16.77;100.00;100995.41;10505673;28;19924;-67
2022/07/09 03:08:22;;;;;;;;;;;;;;;16.76;100.00;100993.66;10505342;28;20443;-65
2022/07/09 03:13:25;;;;;;;;;;;;;;;16.63;100.00;100987.00;10504897;28;20269;-68
2022/07/09 03:18:28;;;;;;;;;;;;;;;16.73;100.00;100988.50;10505098;28;19934;-66
2022/07/09 03:23:32;;;;;;;;;;;;;;;16.75;100.00;100984.06;10504450;28;19925;-67
2022/07/09 03:28:35;;;;;;;;;;;;;;;16.77;100.00;100990.16;10504339;28;19928;-67
2022/07/09 03:33:40;;;;;;;;;;;;;;;16.68;100.00;100991.25;10504155;28;19934;-71
2022/07/09 03:38:44;;;;;;;;;;;;;;;16.70;100.00;100985.97;10503939;28;19924;-68
2022/07/09 03:43:47;;;;;;;;;;;;;;;16.72;100.00;100976.31;10503291;28;19924;-67
2022/07/09 03:48:50;;;;;;;;;;;;;;;16.70;100.00;100976.34;10503485;28;19989;-71
2022/07/09 03:53:54;;;;;;;;;;;;;;;16.66;100.00;100981.69;10503288;28;19924;-67
2022/07/09 03:58:57;;;;;;;;;;;;;;;16.47;100.00;100986.53;10502869;28;19985;-64
2022/07/09 04:04:00;;;;;;;;;;;;;;;16.46;100.00;100990.06;10502997;28;19924;-68
2022/07/09 04:09:05;;;;;;;;;;;;;;;16.52;100.00;100989.00;10502944;28;19934;-64
2022/07/09 04:14:08;;;;;;;;;;;;;;;16.48;100.00;100993.47;10502636;28;19928;-70
2022/07/09 04:19:10;;;;;;;;;;;;;;;16.34;100.00;100986.81;10502173;28;19946;-69
2022/07/09 04:24:15;;;;;;;;;;;;;;;16.40;100.00;100981.41;10502147;28;19934;-71
2022/07/09 04:29:18;;;;;;;;;;;;;;;16.33;100.00;100977.22;10502080;28;19934;-69
2022/07/09 04:34:21;;;;;;;;;;;;;;;16.47;100.00;100968.19;10501956;28;19924;-67
2022/07/09 04:39:27;;;;;;;;;;;;;;;16.58;100.00;100973.16;10501905;28;20253;-69
2022/07/09 04:44:30;;;;;;;;;;;;;;;16.40;100.00;100977.03;10501590;28;19935;-68
2022/07/09 04:49:33;;;;;;;;;;;;;;;16.44;100.00;100983.94;10501556;28;20303;-67
2022/07/09 04:54:41;;;;;;;;;;;;;;;16.50;100.00;100975.13;10500773;28;19928;-67
2022/07/09 04:59:44;;;;;;;;;;;;;;;16.57;100.00;100974.03;10501693;28;19924;-65
2022/07/09 05:04:47;;;;;;;;;;;;;;;16.65;100.00;100969.50;10501164;28;20231;-67
2022/07/09 05:09:51;;;;;;;;;;;;;;;16.73;100.00;100980.63;10501534;28;20304;-71
2022/07/09 05:14:55;;;;;;;;;;;;;;;16.69;100.00;100982.47;10501383;28;19942;-65
2022/07/09 05:19:58;;;;;;;;;;;;;;;16.75;100.00;100982.31;10500976;28;20341;-67
2022/07/09 05:25:03;;;;;;;;;;;;;;;16.87;100.00;100975.91;10500801;28;20261;-70
2022/07/09 05:30:06;;;;;;;;;;;;;;;16.87;100.00;100981.16;10500942;28;19924;-68
2022/07/09 05:35:09;;;;;;;;;;;;;;;16.92;100.00;100980.13;10500748;28;19924;-68
2022/07/09 05:40:14;;;;;;;;;;;;;;;17.04;100.00;100963.19;10500617;28;20405;-66
2022/07/09 05:45:17;;;;;;;;;;;;;;;17.03;100.00;100962.34;10500343;28;20365;-66
2022/07/09 05:50:21;;;;;;;;;;;;;;;17.14;100.00;100967.28;10500161;28;20254;-69
2022/07/09 05:55:25;;;;;;;;;;;;;;;17.23;100.00;100960.06;10500068;28;19929;-72
2022/07/09 06:00:28;;;;;;;;;;;;;;;17.28;100.00;100958.16;10499891;28;19924;-67
2022/07/09 06:05:31;;;;;;;;;;;;;;;17.27;100.00;100951.16;10502207;28;19925;-68
2022/07/09 06:10:36;;;;;;;;;;;;;;;17.29;100.00;100954.63;10507628;28;19934;-66
2022/07/09 06:15:39;;;;;;;;;;;;;;;17.42;100.00;100951.66;10507141;28;20004;-67
2022/07/09 06:20:42;;;;;;;;;;;;;;;17.57;100.00;100954.72;10506831;28;19934;-69
2022/07/09 06:25:46;;;;;;;;;;;;;;;17.80;100.00;100956.66;10506628;28;20349;-67
2022/07/09 06:30:49;;;;;;;;;;;;;;;17.73;99.00;100944.63;10506970;28;19924;-68
2022/07/09 06:35:52;;;;;;;;;;;;;;;17.86;100.00;100941.59;10506402;28;19947;-68
2022/07/09 06:40:57;;;;;;;;;;;;;;;17.97;99.40;100936.00;10506219;28;19924;-68
2022/07/09 06:46:00;;;;;;;;;;;;;;;18.00;99.04;100938.56;10506146;28;19924;-66
2022/07/09 06:51:03;;;;;;;;;;;;;;;17.96;100.00;100929.03;10506084;28;19935;-68
2022/07/09 06:56:08;;;;;;;;;;;;;;;18.01;99.88;100927.13;10505948;28;19934;-68
2022/07/09 07:01:11;;;;;;;;;;;;;;;18.06;99.26;100920.84;10505440;28;19925;-71
2022/07/09 07:06:14;;;;;;;;;;;;;;;18.26;99.57;100915.78;10505465;28;19997;-69
2022/07/09 07:11:18;;;;;;;;;;;;;;;18.28;99.12;100913.97;10504969;28;19924;-66
2022/07/09 07:16:21;;;;;;;;;;;;;;;18.39;97.02;100911.00;10504003;28;19947;-66
2022/07/09 07:21:24;;;;;;;;;;;;;;;18.33;96.17;100912.03;10504543;28;19932;-70
2022/07/09 07:26:28;;;;;;;;;;;;;;;18.26;95.97;100907.03;10504623;28;19925;-67
2022/07/09 07:31:32;;;;;;;;;;;;;;;18.42;95.74;100896.00;10504334;28;19931;-69
2022/07/09 07:36:35;;;;;;;;;;;;;;;18.50;94.68;100908.03;10504010;28;20342;-67
2022/07/09 07:41:39;;;;;;;;;;;;;;;18.37;93.11;100892.66;10503983;28;20300;-71
2022/07/09 07:46:42;;;;;;;;;;;;;;;18.52;92.40;100908.84;10503448;28;19925;-65
2022/07/09 07:51:45;;;;;;;;;;;;;;;18.65;91.17;100897.88;10503362;28;20037;-70
2022/07/09 07:56:50;;;;;;;;;;;;;;;18.80;89.89;100896.47;10503705;28;20045;-68
2022/07/09 08:01:53;;;;;;;;;;;;;;;19.03;90.29;100893.88;10503091;28;19935;-68
2022/07/09 08:06:56;;;;;;;;;;;;;;;18.86;88.51;100896.25;10503300;28;19924;-67
2022/07/09 08:12:01;;;;;;;;;;;;;;;18.65;88.08;100882.09;10503097;28;19974;-66
2022/07/09 08:17:04;;;;;;;;;;;;;;;18.64;88.18;100874.25;10502260;28;19924;-65
2022/07/09 08:22:07;;;;;;;;;;;;;;;18.72;88.43;100873.06;10502531;28;19956;-67
2022/07/09 08:27:12;;;;;;;;;;;;;;;18.99;88.00;100874.72;10501731;28;19925;-67
2022/07/09 08:32:15;;;;;;;;;;;;;;;19.04;87.35;100862.25;10501763;28;19978;-66
2022/07/09 08:37:18;;;;;;;;;;;;;;;19.11;86.42;100862.88;10501575;28;19935;-67
2022/07/09 08:42:22;;;;;;;;;;;;;;;19.18;84.27;100867.84;10501581;28;19938;-67
2022/07/09 08:47:25;;;;;;;;;;;;;;;19.21;83.36;100856.34;10501263;28;20242;-69
2022/07/09 08:52:29;;;;;;;;;;;;;;;19.47;82.99;100832.56;10501897;28;19935;-66
2022/07/09 08:57:33;;;;;;;;;;;;;;;19.70;81.29;100834.28;10501220;28;19924;-68
2022/07/09 09:02:37;;;;;;;;;;;;;;;19.95;80.28;100832.41;10501130;28;19946;-75
2022/07/09 09:07:40;;;;;;;;;;;;;;;19.85;78.81;100823.13;10500789;28;19925;-68
2022/07/09 09:12:44;;;;;;;;;;;;;;;19.79;79.00;100832.16;10500922;28;19925;-70
2022/07/09 09:17:47;;;;;;;;;;;;;;;19.81;75.18;100817.13;10500669;28;19925;-70
2022/07/09 09:22:53;;;;;;;;;;;;;;;20.07;75.46;100808.19;10501114;28;19935;-66
2022/07/09 09:27:58;;;;;;;;;;;;;;;20.38;73.35;100809.47;10501096;28;19924;-67
2022/07/09 09:33:02;;;;;;;;;;;;;;;20.60;70.95;100793.56;10500736;28;20012;-68
2022/07/09 09:38:05;;;;;;;;;;;;;;;20.62;68.48;100792.56;10500673;28;19935;-67
2022/07/09 09:43:09;;;;;;;;;;;;;;;20.88;68.59;100796.66;10506868;28;19924;-67
2022/07/09 09:48:13;;;;;;;;;;;;;;;20.93;67.72;100778.88;10508639;28;19924;-68
2022/07/09 09:53:18;;;;;;;;;;;;;;;20.72;65.69;100777.19;10508319;28;20427;-71
2022/07/09 09:58:23;;;;;;;;;;;;;;;20.56;66.06;100771.75;10507969;28;19935;-69
2022/07/09 10:03:26;;;;;;;;;;;;;;;22.84;61.92;100774.56;10507675;28;19924;-67
2022/07/09 10:08:29;;;;;;;;;;;;;;;33.78;36.56;100728.47;10507389;28;19924;-71
2022/07/09 10:13:33;;;;;;;;;;;;;;;36.68;32.19;100714.97;10507386;28;20247;-69
2022/07/09 10:18:36;;;;;;;;;;;;;;;28.98;42.68;100725.03;10507396;28;19925;-70
2022/07/09 10:23:49;;;;;;;;;;;;;;;26.35;48.80;100728.03;10506895;28;19946;-67
2022/07/09 10:28:53;;;;;;;;;;;;;;;25.21;51.38;100733.06;10506498;28;19934;-68
2022/07/09 10:34:05;;;;;;;;;;;;;;;24.80;54.11;100715.31;10506512;28;20361;-69
2022/07/09 10:39:12;;;;;;;;;;;;;;;24.01;55.78;100715.78;10506482;28;19934;-68
2022/07/09 10:44:26;;;;;;;;;;;;;;;23.90;53.82;100727.00;10506500;28;19924;-72
2022/07/09 10:49:29;;;;;;;;;;;;;;;24.01;52.95;100707.84;10505932;28;19924;-68
2022/07/09 10:54:32;;;;;;;;;;;;;;;24.45;52.91;100706.00;10505841;28;19924;-68
2022/07/09 10:59:37;;;;;;;;;;;;;;;24.77;51.61;100706.69;10505802;28;19930;-66
2022/07/09 11:04:40;;;;;;;;;;;;;;;24.52;50.59;100696.69;10505541;28;19932;-68
2022/07/09 11:09:43;;;;;;;;;;;;;;;24.55;48.83;100719.56;10505136;28;20280;-67
2022/07/09 11:14:49;;;;;;;;;;;;;;;24.59;49.19;100702.50;10504687;28;19924;-66
2022/07/09 11:19:52;;;;;;;;;;;;;;;24.83;48.24;100699.16;10504878;28;19973;-68
2022/07/09 11:24:55;;;;;;;;;;;;;;;24.93;47.62;100696.78;10504958;28;19925;-70
2022/07/09 11:30:02;;;;;;;;;;;;;;;25.13;48.08;100676.94;10504344;28;19935;-67
2022/07/09 11:35:05;;;;;;;;;;;;;;;25.07;48.34;100684.31;10504169;28;19924;-70
2022/07/09 11:40:09;;;;;;;;;;;;;;;24.98;47.41;100692.91;10503722;28;19935;-69
2022/07/09 11:45:20;;;;;;;;;;;;;;;25.38;47.65;100693.00;10503835;28;19924;-69
2022/07/09 11:50:25;;;;;;;;;;;;;;;25.07;47.30;100694.94;10503733;28;19935;-67
2022/07/09 11:55:32;;;;;;;;;;;;;;;25.33;47.05;100690.63;10503127;28;19931;-70
2022/07/09 12:00:40;;;;;;;;;;;;;;;25.13;46.99;100689.25;10502899;28;20363;-68
2022/07/09 12:05:43;;;;;;;;;;;;;;;24.73;47.21;100668.84;10502392;28;19924;-72
2022/07/09 12:10:46;;;;;;;;;;;;;;;24.76;47.22;100671.31;10502663;28;20261;-67
2022/07/09 12:15:50;;;;;;;;;;;;;;;24.39;48.41;100666.56;10502500;28;19924;-68
2022/07/09 12:20:53;;;;;;;;;;;;;;;23.99;48.71;100660.19;10502025;28;19924;-68
2022/07/09 12:25:56;;;;;;;;;;;;;;;23.85;49.37;100660.13;10501918;28;20352;-66
2022/07/09 12:31:01;;;;;;;;;;;;;;;23.72;50.51;100653.00;10502044;28;19924;-66
2022/07/09 12:36:04;;;;;;;;;;;;;;;23.40;51.31;100662.00;10502151;28;19925;-70
2022/07/09 12:41:07;;;;;;;;;;;;;;;23.28;52.02;100663.53;10501477;28;20235;-72
2022/07/09 12:46:12;;;;;;;;;;;;;;;23.33;51.39;100658.00;10501437;28;19942;-68
2022/07/09 12:51:15;;;;;;;;;;;;;;;23.39;51.67;100653.19;10501484;28;19930;-67
2022/07/09 12:56:18;;;;;;;;;;;;;;;23.74;52.04;100645.81;10501399;28;19924;-68
2022/07/09 13:01:22;;;;;;;;;;;;;;;24.55;50.83;100635.47;10502229;28;19925;-65
2022/07/09 13:06:34;;;;;;;;;;;;;;;24.25;50.86;100633.84;10501225;28;19939;-70
2022/07/09 13:11:38;;;;;;;;;;;;;;;24.29;51.25;100628.28;10501028;28;19979;-69
2022/07/09 13:16:42;;;;;;;;;;;;;;;23.72;51.70;100627.34;10505578;28;19931;-69
2022/07/09 13:22:00;;;;;;;;;;;;;;;23.15;52.74;100640.44;10509475;28;20254;-68
2022/07/09 13:27:08;;;;;;;;;;;;;;;22.76;52.04;100640.94;10509182;28;19929;-71
2022/07/09 13:32:12;;;;;;;;;;;;;;;22.68;52.60;100637.81;10509219;28;19924;-70
2022/07/09 13:37:23;;;;;;;;;;;;;;;22.58;54.00;100629.56;10508780;28;19935;-66
2022/07/09 13:42:27;;;;;;;;;;;;;;;22.38;54.62;100639.50;10508354;28;20369;-66
2022/07/09 13:47:31;;;;;;;;;;;;;;;22.33;54.77;100623.00;10508377;28;19932;-68
2022/07/09 13:52:34;;;;;;;;;;;;;;;22.41;55.54;100626.94;10508245;28;19935;-69
2022/07/09 13:57:37;;;;;;;;;;;;;;;22.09;57.01;100633.09;10507943;28;19924;-69
2022/07/09 14:02:42;;;;;;;;;;;;;;;21.97;57.44;100636.38;10507484;28;19935;-69
2022/07/09 14:07:45;;;;;;;;;;;;;;;21.79;57.44;100632.06;10507644;28;19939;-70
2022/07/09 14:12:48;;;;;;;;;;;;;;;21.92;57.07;100634.94;10507546;28;20300;-67
2022/07/09 14:17:52;;;;;;;;;;;;;;;22.18;56.59;100639.69;10507026;28;19950;-70
2022/07/09 14:22:55;;;;;;;;;;;;;;;22.29;56.39;100619.69;10506549;28;19924;-67
2022/07/09 14:27:58;;;;;;;;;;;;;;;22.18;57.25;100634.38;10506178;28;19942;-67
2022/07/09 14:33:03;;;;;;;;;;;;;;;22.27;57.33;100610.09;10506888;28;19924;-67
2022/07/09 14:38:06;;;;;;;;;;;;;;;22.29;57.65;100627.59;10506577;28;19925;-68
2022/07/09 14:43:09;;;;;;;;;;;;;;;22.08;57.39;100627.88;10506214;28;19925;-65
2022/07/09 14:48:13;;;;;;;;;;;;;;;21.98;57.81;100619.59;10506026;28;19964;-73
2022/07/09 14:53:16;;;;;;;;;;;;;;;21.79;57.72;100618.84;10505884;28;19973;-73
2022/07/09 14:58:19;;;;;;;;;;;;;;;21.79;57.47;100613.56;10505943;28;19932;-67
2022/07/09 15:03:23;;;;;;;;;;;;;;;21.62;56.90;100621.47;10505426;28;19924;-67
2022/07/09 15:08:26;;;;;;;;;;;;;;;21.48;56.31;100610.75;10505183;28;19924;-70
2022/07/09 15:13:29;;;;;;;;;;;;;;;21.46;56.95;100608.19;10505169;28;19924;-70
2022/07/09 15:18:34;;;;;;;;;;;;;;;21.56;56.81;100603.28;10505683;28;20227;-65
2022/07/09 15:23:37;;;;;;;;;;;;;;;21.42;56.56;100608.41;10504391;28;19935;-65
2022/07/09 15:28:45;;;;;;;;;;;;;;;21.33;56.72;100604.44;10504460;28;19930;-69
2022/07/09 15:33:49;;;;;;;;;;;;;;;21.27;57.09;100596.84;10504321;28;19925;-67
2022/07/09 15:38:52;;;;;;;;;;;;;;;21.14;57.48;100593.09;10503823;28;19950;-70
2022/07/09 15:43:56;;;;;;;;;;;;;;;21.11;58.23;100585.31;10503922;28;19925;-68
2022/07/09 15:49:00;;;;;;;;;;;;;;;21.09;57.99;100575.78;10503285;28;19938;-70
2022/07/09 15:54:03;;;;;;;;;;;;;;;20.98;58.39;100578.94;10503391;28;19924;-70
2022/07/09 15:59:07;;;;;;;;;;;;;;;21.04;58.48;100577.78;10503334;28;19925;-67
2022/07/09 16:04:11;;;;;;;;;;;;;;;21.00;58.77;100577.06;10503202;28;19925;-67
2022/07/09 16:09:14;;;;;;;;;;;;;;;20.95;59.01;100581.69;10502575;28;19938;-67
2022/07/09 16:14:18;;;;;;;;;;;;;;;20.88;59.12;100571.53;10502441;28;19924;-67
2022/07/09 16:19:22;;;;;;;;;;;;;;;20.86;59.19;100568.09;10502234;28;19957;-68
2022/07/09 16:24:25;;;;;;;;;;;;;;;20.98;59.45;100562.22;10502153;28;20230;-69
2022/07/09 16:29:28;;;;;;;;;;;;;;;20.91;59.88;100559.03;10502052;28;20007;-68
2022/07/09 16:34:34;;;;;;;;;;;;;;;20.90;60.12;100559.13;10501757;28;20214;-69
2022/07/09 16:39:37;;;;;;;;;;;;;;;20.81;59.81;100559.56;10501619;28;19935;-67
2022/07/09 16:44:40;;;;;;;;;;;;;;;20.89;59.59;100562.66;10501582;28;20245;-69
2022/07/09 16:49:44;;;;;;;;;;;;;;;20.87;59.75;100560.09;10501699;28;19974;-68
2022/07/09 16:55:07;;;;;;;;;;;;;;;20.92;60.03;100559.88;10501603;28;19950;-69
2022/07/09 17:00:10;;;;;;;;;;;;;;;20.84;59.97;100552.34;10501517;28;19924;-66
2022/07/09 17:05:17;;;;;;;;;;;;;;;20.83;60.24;100544.50;10501500;28;19950;-68
2022/07/09 17:10:27;;;;;;;;;;;;;;;20.72;61.16;100546.81;10501213;28;20337;-69
2022/07/09 17:15:30;;;;;;;;;;;;;;;20.73;61.40;100541.44;10501817;28;19925;-67
2022/07/09 17:20:34;;;;;;;;;;;;;;;20.68;61.17;100536.41;10500878;28;19924;-66
2022/07/09 17:25:37;;;;;;;;;;;;;;;20.57;61.13;100535.22;10500707;28;19934;-69
2022/07/09 17:30:40;;;;;;;;;;;;;;;20.53;61.20;100539.78;10500751;28;19924;-70
2022/07/09 17:35:46;;;;;;;;;;;;;;;20.59;61.38;100528.06;10500445;28;19931;-66
2022/07/09 17:40:50;;;;;;;;;;;;;;;20.55;61.62;100524.72;10500645;28;20349;-68
2022/07/09 17:45:53;;;;;;;;;;;;;;;20.56;61.84;100529.09;10500321;28;19924;-67
2022/07/09 17:50:57;;;;;;;;;;;;;;;20.54;61.70;100527.44;10500060;28;19924;-66
2022/07/09 17:56:01;;;;;;;;;;;;;;;20.54;61.87;100530.94;10500975;28;19946;-66
2022/07/09 18:01:05;;;;;;;;;;;;;;;20.53;62.29;100529.25;10501901;28;19924;-69
2022/07/09 18:06:10;;;;;;;;;;;;;;;20.42;63.68;100533.28;10507680;28;19924;-67
2022/07/09 18:11:13;;;;;;;;;;;;;;;20.39;64.42;100531.69;10507435;28;20256;-71
2022/07/09 18:16:16;;;;;;;;;;;;;;;20.33;65.30;100533.72;10507442;28;19987;-68
2022/07/09 18:21:21;;;;;;;;;;;;;;;20.31;65.67;100532.97;10507194;28;19934;-69
2022/07/09 18:26:24;;;;;;;;;;;;;;;20.27;66.45;100534.91;10507000;28;19925;-69
2022/07/09 18:31:27;;;;;;;;;;;;;;;20.22;66.86;100542.16;10506601;28;19924;-70
2022/07/09 18:36:32;;;;;;;;;;;;;;;20.15;67.29;100543.34;10506506;28;19925;-67
2022/07/09 18:41:35;;;;;;;;;;;;;;;20.03;67.81;100533.38;10506698;28;19937;-66
2022/07/09 18:46:38;;;;;;;;;;;;;;;19.98;67.81;100535.34;10506085;28;19924;-68
2022/07/09 18:51:43;;;;;;;;;;;;;;;19.93;68.25;100537.31;10506147;28;19924;-66
2022/07/09 18:56:46;;;;;;;;;;;;;;;19.91;68.41;100528.66;10506005;28;19939;-65
2022/07/09 19:01:49;;;;;;;;;;;;;;;19.89;68.67;100530.50;10505600;28;19935;-69
2022/07/09 19:06:53;;;;;;;;;;;;;;;19.92;68.39;100530.34;10505502;28;20238;-66
2022/07/09 19:11:56;;;;;;;;;;;;;;;19.87;68.41;100529.72;10504243;28;19924;-67
2022/07/09 19:16:59;;;;;;;;;;;;;;;19.83;67.78;100530.75;10504806;28;19924;-70
2022/07/09 19:22:04;;;;;;;;;;;;;;;19.75;67.31;100525.00;10505015;28;20278;-69
2022/07/09 19:27:07;;;;;;;;;;;;;;;19.75;67.87;100525.00;10504774;28;20020;-71
2022/07/09 19:37:33;;;;;;;;;;;;;;;19.57;69.08;100538.97;10504869;28;20253;-69
2022/07/09 19:42:36;;;;;;;;;;;;;;;19.59;69.40;100536.28;10503862;28;20269;-68
2022/07/09 19:47:44;;;;;;;;;;;;;;;19.53;70.17;100530.34;10503784;28;19935;-66
2022/07/09 19:52:48;;;;;;;;;;;;;;;19.48;70.58;100524.41;10503523;28;19924;-67
2022/07/09 19:57:51;;;;;;;;;;;;;;;19.40;71.23;100523.03;10503536;28;19935;-68
2022/07/09 20:02:54;;;;;;;;;;;;;;;19.38;71.44;100524.88;10503312;28;19924;-71
2022/07/09 20:07:59;;;;;;;;;;;;;;;19.42;71.55;100523.84;10502949;28;19935;-70
2022/07/09 20:13:02;;;;;;;;;;;;;;;19.40;71.82;100530.94;10502956;28;19924;-68
2022/07/09 20:18:05;;;;;;;;;;;;;;;19.27;72.29;100533.25;10502575;28;19935;-67
2022/07/09 20:23:09;;;;;;;;;;;;;;;19.34;72.23;100524.19;10502029;28;19925;-66
2022/07/09 20:28:12;;;;;;;;;;;;;;;19.27;72.75;100524.47;10502083;28;19924;-67
2022/07/09 20:33:15;;;;;;;;;;;;;;;19.14;73.71;100515.38;10502065;28;19924;-66
2022/07/09 20:38:20;;;;;;;;;;;;;;;19.17;73.89;100515.28;10502128;28;19924;-67
2022/07/09 20:43:23;;;;;;;;;;;;;;;19.16;74.17;100521.44;10501960;28;19934;-73
2022/07/09 20:48:27;;;;;;;;;;;;;;;19.14;74.60;100510.97;10501364;28;19928;-68
2022/07/09 20:53:31;;;;;;;;;;;;;;;19.22;74.60;100508.03;10501531;28;19925;-72
2022/07/09 20:58:34;;;;;;;;;;;;;;;19.19;75.25;100513.44;10501476;28;19925;-66
2022/07/09 21:03:38;;;;;;;;;;;;;;;19.15;75.70;100514.47;10501341;28;19986;-69
2022/07/09 21:08:44;;;;;;;;;;;;;;;19.08;75.94;100506.00;10501215;28;19935;-66
2022/07/09 21:13:47;;;;;;;;;;;;;;;19.09;76.32;100514.72;10501520;28;19928;-69
2022/07/09 21:18:52;;;;;;;;;;;;;;;19.05;76.55;100505.25;10500949;28;19924;-68
2022/07/09 21:23:58;;;;;;;;;;;;;;;19.08;76.71;100503.38;10501374;28;19924;-69
2022/07/09 21:29:01;;;;;;;;;;;;;;;19.02;77.34;100502.75;10501005;28;19942;-68
2022/07/09 21:34:04;;;;;;;;;;;;;;;18.99;77.86;100506.38;10500600;28;19924;-68
2022/07/09 21:39:09;;;;;;;;;;;;;;;19.09;77.74;100501.56;10507169;28;20262;-70
2022/07/09 21:44:12;;;;;;;;;;;;;;;19.09;78.00;100496.31;10508839;28;19935;-69
2022/07/09 21:49:17;;;;;;;;;;;;;;;19.10;78.46;100487.50;10508571;28;19928;-66
2022/07/09 21:54:21;;;;;;;;;;;;;;;19.01;78.20;100490.53;10508535;28;20337;-68
2022/07/09 21:59:24;;;;;;;;;;;;;;;18.92;77.43;100483.00;10508259;28;19925;-67
2022/07/09 22:04:28;;;;;;;;;;;;;;;18.86;77.43;100480.66;10508103;28;19928;-66
2022/07/09 22:09:32;;;;;;;;;;;;;;;18.89;77.59;100486.63;10507796;28;19925;-70
2022/07/09 22:14:36;;;;;;;;;;;;;;;18.80;77.65;100480.88;10507557;28;19924;-71
2022/07/09 22:19:39;;;;;;;;;;;;;;;18.58;78.52;100477.44;10507582;28;19924;-67
2022/07/09 22:24:49;;;;;;;;;;;;;;;18.33;79.45;100478.41;10507155;28;19929;-69
2022/07/09 22:29:52;;;;;;;;;;;;;;;18.38;79.26;100476.44;10507171;28;19924;-68
2022/07/09 22:34:55;;;;;;;;;;;;;;;18.38;79.81;100471.19;10506715;28;19946;-69
2022/07/09 22:39:59;;;;;;;;;;;;;;;18.40;79.58;100476.41;10506534;28;19935;-69
2022/07/09 22:45:08;;;;;;;;;;;;;;;18.27;79.97;100470.75;10506328;28;19965;-65
2022/07/09 22:50:11;;;;;;;;;;;;;;;18.13;80.52;100469.59;10505952;28;19935;-66
2022/07/09 22:55:15;;;;;;;;;;;;;;;18.07;81.10;100465.41;10506170;28;20242;-67
2022/07/09 23:00:18;;;;;;;;;;;;;;;18.12;81.27;100463.47;10506036;28;19931;-69
2022/07/09 23:05:21;;;;;;;;;;;;;;;18.15;80.91;100462.50;10505729;28;19924;-69
2022/07/09 23:10:26;;;;;;;;;;;;;;;18.14;80.84;100458.16;10505293;28;19925;-66
2022/07/09 23:15:29;;;;;;;;;;;;;;;18.06;80.81;100463.72;10505106;28;20334;-69
2022/07/09 23:20:32;;;;;;;;;;;;;;;17.92;81.08;100468.66;10504746;28;19942;-67
2022/07/09 23:25:36;;;;;;;;;;;;;;;17.85;81.35;100461.06;10504635;28;19939;-68
2022/07/09 23:30:39;;;;;;;;;;;;;;;17.87;82.10;100457.47;10504325;28;20254;-68
2022/07/09 23:35:42;;;;;;;;;;;;;;;17.80;81.22;100452.50;10504776;28;19931;-69
2022/07/09 23:40:46;;;;;;;;;;;;;;;17.79;81.48;100448.16;10504234;28;19924;-69
2022/07/09 23:45:49;;;;;;;;;;;;;;;17.76;80.93;100443.00;10504121;28;19924;-66
2022/07/09 23:50:52;;;;;;;;;;;;;;;17.66;80.72;100447.75;10503695;28;19931;-67
2022/07/09 23:55:57;;;;;;;;;;;;;;;17.68;80.73;100443.31;10503454;28;19934;-68
